Time;durP1;ratioP1;P1;durP2;ratioP2;P2;SDS_P1;SDS_P2;PMS_P1;PMS_P2;Temp;Humidity;BMP_temperature;BMP_pressure;BME280_temperature;BME280_humidity;BME280_pressure;Samples;Min_cycle;Max_cycle;Signal;HPM_P1;HPM_P2
2022/12/05 00:00:54;;;;;;;84.43;26.50;;;5.20;98.60;;;;;;4959337;28;20034;-64
2022/12/05 00:03:20;;;;;;;79.07;26.10;;;5.30;98.40;;;;;;4965919;28;20030;-64
2022/12/05 00:05:46;;;;;;;76.95;25.42;;;5.30;98.30;;;;;;4935905;28;20450;-64
2022/12/05 00:08:12;;;;;;;85.47;27.00;;;5.30;98.10;;;;;;4958743;28;20039;-64
2022/12/05 00:10:39;;;;;;;83.35;27.60;;;5.30;98.20;;;;;;4961843;28;20136;-64
2022/12/05 00:13:06;;;;;;;81.07;26.88;;;5.30;98.20;;;;;;4959119;28;20154;-64
2022/12/05 00:15:37;;;;;;;91.57;29.42;;;5.30;98.20;;;;;;4962566;28;20034;-64
2022/12/05 00:18:03;;;;;;;91.70;27.98;;;5.40;98.10;;;;;;4957777;28;20038;-64
2022/12/05 00:20:29;;;;;;;80.28;26.08;;;5.30;98.00;;;;;;4961234;28;20022;-64
2022/12/05 00:22:55;;;;;;;80.25;27.73;;;5.20;98.20;;;;;;4962534;28;20041;-64
2022/12/05 00:25:20;;;;;;;86.03;26.83;;;5.30;98.30;;;;;;4960892;28;20039;-64
2022/12/05 00:27:46;;;;;;;86.25;28.30;;;5.20;98.40;;;;;;4961672;28;20066;-64
2022/12/05 00:30:12;;;;;;;77.47;26.42;;;5.20;98.30;;;;;;4963951;28;20054;-64
2022/12/05 00:32:38;;;;;;;79.95;25.75;;;5.20;98.50;;;;;;4962131;28;20031;-64
2022/12/05 00:35:04;;;;;;;88.07;28.40;;;5.30;98.40;;;;;;4961278;28;20034;-64
2022/12/05 00:37:30;;;;;;;89.07;28.02;;;5.30;98.20;;;;;;4962087;28;20105;-64
2022/12/05 00:39:56;;;;;;;88.68;28.27;;;5.40;98.30;;;;;;4963740;28;20038;-64
2022/12/05 00:42:22;;;;;;;83.53;28.17;;;5.40;98.20;;;;;;4967124;28;20046;-63
2022/12/05 00:44:50;;;;;;;92.28;28.08;;;5.40;98.00;;;;;;4961752;28;20037;-63
2022/12/05 00:47:16;;;;;;;82.90;28.58;;;5.40;97.90;;;;;;4964843;28;20037;-63
2022/12/05 00:49:42;;;;;;;83.95;27.50;;;5.40;98.20;;;;;;4962234;28;20035;-67
2022/12/05 00:52:08;;;;;;;82.32;26.38;;;5.40;98.10;;;;;;4960171;28;20784;-67
2022/12/05 00:54:34;;;;;;;97.05;28.83;;;5.30;98.20;;;;;;4961812;28;20062;-67
2022/12/05 00:57:00;;;;;;;76.82;28.52;;;5.30;98.30;;;;;;4961683;28;20451;-67
2022/12/05 00:59:26;;;;;;;86.88;28.02;;;5.30;98.20;;;;;;4966953;28;20888;-68
2022/12/05 01:01:52;;;;;;;76.47;26.55;;;5.30;98.30;;;;;;4965963;28;20042;-67
2022/12/05 01:04:20;;;;;;;78.05;27.33;;;5.30;98.30;;;;;;4964358;28;20411;-67
2022/12/05 01:06:47;;;;;;;86.05;28.73;;;5.20;98.10;;;;;;4965737;28;20039;-68
2022/12/05 01:09:16;;;;;;;87.57;29.40;;;5.30;98.40;;;;;;4934406;28;20054;-68
2022/12/05 01:11:42;;;;;;;93.30;28.95;;;5.20;98.30;;;;;;4958894;28;20026;-67
2022/12/05 01:14:09;;;;;;;88.18;29.10;;;5.20;98.50;;;;;;4958829;28;20114;-67
2022/12/05 01:16:37;;;;;;;74.38;26.20;;;5.10;98.50;;;;;;4960034;28;20031;-68
2022/12/05 01:19:16;;;;;;;78.53;27.27;;;5.10;98.60;;;;;;4961012;28;20057;-68
2022/12/05 01:21:42;;;;;;;91.47;29.70;;;5.20;98.80;;;;;;4960312;28;20027;-69
2022/12/05 01:24:09;;;;;;;86.28;28.25;;;5.20;98.70;;;;;;4958665;28;20054;-69
2022/12/05 01:26:36;;;;;;;74.75;25.73;;;5.20;98.70;;;;;;4964070;28;20757;-69
2022/12/05 01:29:02;;;;;;;96.88;30.50;;;5.30;98.60;;;;;;4960554;28;20053;-69
2022/12/05 01:31:31;;;;;;;82.68;28.13;;;5.30;98.50;;;;;;4959676;28;20038;-69
2022/12/05 01:33:59;;;;;;;75.18;28.00;;;5.30;98.30;;;;;;4959812;28;20031;-69
2022/12/05 01:36:25;;;;;;;82.05;27.95;;;5.30;98.40;;;;;;4963073;28;20053;-68
2022/12/05 01:38:52;;;;;;;82.93;27.13;;;5.20;98.70;;;;;;4966010;28;20031;-68
2022/12/05 01:41:30;;;;;;;82.15;25.95;;;5.20;98.80;;;;;;4963191;28;20133;-66
2022/12/05 01:44:03;;;;;;;81.05;26.77;;;5.20;98.80;;;;;;4963810;28;20058;-67
2022/12/05 01:46:32;;;;;;;85.32;28.23;;;5.30;98.80;;;;;;4964564;28;20068;-67
2022/12/05 01:49:24;;;;;;;84.68;25.63;;;5.30;98.90;;;;;;4961332;28;20133;-67
2022/12/05 01:51:54;;;;;;;75.90;24.73;;;5.30;98.80;;;;;;4959823;28;20033;-67
2022/12/05 01:54:21;;;;;;;75.15;26.88;;;5.30;98.70;;;;;;4959294;28;20045;-67
2022/12/05 01:56:54;;;;;;;80.45;27.33;;;5.30;98.60;;;;;;4966552;28;20041;-68
2022/12/05 01:59:22;;;;;;;87.13;27.75;;;5.30;98.80;;;;;;4940035;28;20035;-68
2022/12/05 02:01:48;;;;;;;80.10;27.25;;;5.30;98.90;;;;;;4962550;28;20044;-67
2022/12/05 02:04:14;;;;;;;73.15;25.00;;;5.20;98.90;;;;;;4964854;28;20070;-67
2022/12/05 02:06:40;;;;;;;74.88;25.92;;;5.30;98.80;;;;;;4961897;28;20050;-67
2022/12/05 02:09:06;;;;;;;69.20;26.00;;;5.30;98.70;;;;;;4961545;28;20030;-67
2022/12/05 02:11:33;;;;;;;78.63;24.90;;;5.30;98.70;;;;;;4961275;28;20030;-67
2022/12/05 02:14:32;;;;;;;83.07;27.25;;;5.40;98.60;;;;;;4966404;28;20031;-66
2022/12/05 02:17:29;;;;;;;81.22;26.35;;;5.40;98.60;;;;;;4961320;28;20884;-67
2022/12/05 02:20:21;;;;;;;78.32;27.70;;;5.40;98.80;;;;;;4957850;28;20384;-68
2022/12/05 02:22:53;;;;;;;80.57;26.67;;;5.40;98.60;;;;;;4963012;28;20026;-67
2022/12/05 02:26:06;;;;;;;71.35;24.73;;;5.40;98.50;;;;;;4961924;28;20037;-66
2022/12/05 02:28:44;;;;;;;86.40;27.48;;;5.50;98.50;;;;;;4881531;29;20043;-67
2022/12/05 02:31:40;;;;;;;78.43;26.13;;;5.50;98.30;;;;;;4881424;29;20036;-69
2022/12/05 02:34:16;;;;;;;79.00;28.50;;;5.50;98.30;;;;;;4944891;28;20042;-68
2022/12/05 02:36:55;;;;;;;78.90;26.63;;;5.40;98.30;;;;;;4961351;28;20822;-68
2022/12/05 02:39:27;;;;;;;76.40;25.85;;;5.40;98.50;;;;;;4962449;28;20795;-67
2022/12/05 02:42:04;;;;;;;76.85;25.90;;;5.40;98.60;;;;;;4943750;28;20034;-68
2022/12/05 02:44:42;;;;;;;75.05;25.83;;;5.40;98.40;;;;;;4961557;28;20110;-68
2022/12/05 02:47:11;;;;;;;79.75;25.48;;;5.40;98.50;;;;;;4960078;28;20134;-69
2022/12/05 02:49:40;;;;;;;71.78;26.38;;;5.40;98.50;;;;;;4956606;28;20121;-69
2022/12/05 02:52:11;;;;;;;78.68;26.73;;;5.40;98.50;;;;;;4962951;28;20035;-68
2022/12/05 02:54:43;;;;;;;84.05;27.52;;;5.30;98.70;;;;;;4960878;28;20045;-69
2022/12/05 02:57:11;;;;;;;79.43;26.67;;;5.30;98.90;;;;;;4959886;28;20039;-68
2022/12/05 02:59:37;;;;;;;75.20;26.38;;;5.30;98.70;;;;;;4961432;28;20045;-68
2022/12/05 03:02:03;;;;;;;70.82;26.42;;;5.30;98.90;;;;;;4961723;28;20031;-67
2022/12/05 03:04:30;;;;;;;78.88;25.27;;;5.30;99.00;;;;;;4959571;28;20026;-68
2022/12/05 03:07:01;;;;;;;78.72;27.08;;;5.30;98.70;;;;;;4959839;28;20022;-67
2022/12/05 03:09:46;;;;;;;68.05;23.50;;;5.40;98.70;;;;;;4959977;28;20042;-67
2022/12/05 03:12:27;;;;;;;64.97;23.73;;;5.40;98.50;;;;;;4963819;28;20445;-67
2022/12/05 03:15:03;;;;;;;72.28;24.63;;;5.40;98.50;;;;;;4961288;28;20031;-68
2022/12/05 03:17:34;;;;;;;62.50;23.77;;;5.40;98.60;;;;;;4961237;28;20227;-68
2022/12/05 03:20:19;;;;;;;62.45;23.10;;;5.40;98.40;;;;;;4957927;28;20038;-67
2022/12/05 03:22:59;;;;;;;66.80;23.42;;;5.40;98.30;;;;;;4956264;28;20041;-67
2022/12/05 03:25:38;;;;;;;56.17;21.17;;;5.40;98.30;;;;;;4959725;28;20031;-68
2022/12/05 03:28:15;;;;;;;59.83;23.00;;;5.40;98.40;;;;;;4957680;28;20426;-68
2022/12/05 03:30:41;;;;;;;60.83;22.43;;;5.40;98.60;;;;;;4962299;28;20137;-64
2022/12/05 03:33:16;;;;;;;58.72;21.38;;;5.40;98.50;;;;;;4962281;28;20034;-64
2022/12/05 03:35:56;;;;;;;53.05;18.95;;;5.40;98.70;;;;;;4957781;28;20030;-64
2022/12/05 03:38:38;;;;;;;56.65;20.45;;;5.40;98.70;;;;;;4962194;28;20061;-64
2022/12/05 03:41:22;;;;;;;53.58;20.10;;;5.30;99.10;;;;;;4958266;28;20023;-64
2022/12/05 03:43:58;;;;;;;53.83;18.92;;;5.30;98.60;;;;;;4956844;28;20745;-64
2022/12/05 03:46:39;;;;;;;54.15;20.13;;;5.30;98.70;;;;;;4958288;28;20085;-64
2022/12/05 03:49:14;;;;;;;59.25;22.73;;;5.30;98.60;;;;;;4961200;28;20031;-64
2022/12/05 03:52:12;;;;;;;51.00;19.17;;;5.40;98.70;;;;;;4959583;28;20034;-64
2022/12/05 03:54:45;;;;;;;53.13;20.08;;;5.40;98.40;;;;;;4959025;28;20477;-64
2022/12/05 03:57:14;;;;;;;54.53;20.50;;;5.30;98.40;;;;;;4961526;28;20898;-64
2022/12/05 03:59:52;;;;;;;54.80;20.63;;;5.30;98.60;;;;;;4959854;28;20260;-64
2022/12/05 04:02:44;;;;;;;49.22;19.30;;;5.40;98.60;;;;;;4961008;28;20113;-64
2022/12/05 04:05:23;;;;;;;54.42;20.63;;;5.30;98.60;;;;;;4962905;28;20042;-64
2022/12/05 04:07:57;;;;;;;55.70;22.42;;;5.40;98.50;;;;;;4965344;28;20033;-64
2022/12/05 04:10:28;;;;;;;56.65;20.85;;;5.40;98.40;;;;;;4966813;28;20035;-64
2022/12/05 04:12:57;;;;;;;55.75;19.40;;;5.40;98.40;;;;;;4960378;28;20487;-64
2022/12/05 04:17:02;;;;;;;53.78;20.52;;;5.40;98.50;;;;;;4966317;28;20043;-63
2022/12/05 04:18:18;;;;;;;58.08;20.58;;;5.40;98.50;;;;;;4963801;28;20030;-62
2022/12/05 04:23:30;;;;;;;43.25;18.45;;;5.30;98.60;;;;;;4961719;28;20809;-64
2022/12/05 04:26:13;;;;;;;48.03;19.58;;;5.30;98.70;;;;;;4961723;28;20029;-63
2022/12/05 04:28:46;;;;;;;51.65;20.52;;;5.30;98.70;;;;;;4963244;28;20821;-64
2022/12/05 04:31:24;;;;;;;47.90;20.15;;;5.10;98.80;;;;;;4963038;28;20039;-64
2022/12/05 04:33:58;;;;;;;55.10;19.92;;;5.10;99.10;;;;;;4961697;28;20943;-64
2022/12/05 04:36:45;;;;;;;47.83;18.40;;;5.20;99.10;;;;;;4963736;28;20042;-63
2022/12/05 04:39:20;;;;;;;50.30;19.50;;;5.30;99.00;;;;;;4960931;28;20031;-63
2022/12/05 04:41:53;;;;;;;48.28;20.52;;;5.30;98.80;;;;;;4958886;28;20042;-63
2022/12/05 04:44:25;;;;;;;47.40;18.90;;;5.30;98.70;;;;;;4960540;28;20062;-63
2022/12/05 04:46:53;;;;;;;60.67;21.20;;;5.30;98.90;;;;;;4966823;28;20023;-63
2022/12/05 04:49:24;;;;;;;51.08;19.10;;;5.30;98.90;;;;;;4964569;28;20487;-67
2022/12/05 04:51:53;;;;;;;52.05;19.73;;;5.20;98.80;;;;;;4963175;28;20042;-67
2022/12/05 04:54:28;;;;;;;53.75;21.38;;;5.30;98.80;;;;;;4963490;28;20122;-68
2022/12/05 04:57:03;;;;;;;56.72;20.08;;;5.20;99.00;;;;;;4962199;28;20047;-67
2022/12/05 04:59:29;;;;;;;51.20;19.98;;;5.20;98.90;;;;;;4963944;28;20721;-67
2022/12/05 05:02:01;;;;;;;49.08;19.05;;;5.20;99.00;;;;;;4963433;28;20034;-67
2022/12/05 05:04:37;;;;;;;52.85;19.92;;;5.20;99.00;;;;;;4965193;28;20034;-66
2022/12/05 05:07:11;;;;;;;40.67;17.75;;;5.30;98.90;;;;;;4963983;28;20027;-66
2022/12/05 05:09:38;;;;;;;51.42;18.55;;;5.30;99.00;;;;;;4961131;28;20047;-67
2022/12/05 05:12:05;;;;;;;48.28;18.17;;;5.40;98.80;;;;;;4963709;28;20030;-68
2022/12/05 05:14:30;;;;;;;48.92;18.40;;;5.30;98.50;;;;;;4963773;28;20383;-67
2022/12/05 05:16:56;;;;;;;45.95;19.13;;;5.40;98.70;;;;;;4961743;28;20035;-67
2022/12/05 05:19:23;;;;;;;42.58;18.83;;;5.40;98.80;;;;;;4960690;28;20043;-67
2022/12/05 05:21:49;;;;;;;45.55;17.48;;;5.40;98.70;;;;;;4961456;28;20031;-67
2022/12/05 05:24:15;;;;;;;49.03;19.52;;;5.40;98.80;;;;;;4963783;28;20396;-67
2022/12/05 05:26:43;;;;;;;45.30;18.75;;;5.40;98.60;;;;;;4964328;28;20035;-67
2022/12/05 05:29:10;;;;;;;46.10;17.67;;;5.40;98.70;;;;;;4960637;28;20964;-67
2022/12/05 05:31:37;;;;;;;40.10;17.55;;;5.40;98.70;;;;;;4963806;28;20423;-63
2022/12/05 05:34:04;;;;;;;42.42;17.52;;;5.40;98.60;;;;;;4962163;28;20039;-63
2022/12/05 05:36:30;;;;;;;39.03;15.82;;;5.30;98.60;;;;;;4962663;28;20045;-63
2022/12/05 05:38:58;;;;;;;38.55;16.17;;;5.30;98.90;;;;;;4961207;28;20089;-63
2022/12/05 05:41:28;;;;;;;42.15;17.63;;;5.30;99.00;;;;;;4961928;28;20043;-63
2022/12/05 05:43:54;;;;;;;40.65;16.52;;;5.30;98.90;;;;;;4967146;28;20628;-63
2022/12/05 05:46:23;;;;;;;38.13;16.30;;;5.20;99.20;;;;;;4964854;28;20485;-63
2022/12/05 05:48:49;;;;;;;40.70;16.50;;;5.20;99.20;;;;;;4963372;28;20026;-63
2022/12/05 05:51:17;;;;;;;38.38;15.85;;;5.30;99.20;;;;;;4964526;28;20031;-67
2022/12/05 05:53:43;;;;;;;37.13;15.48;;;5.40;98.90;;;;;;4961410;28;20113;-63
2022/12/05 05:56:12;;;;;;;34.17;14.68;;;5.40;98.80;;;;;;4958629;28;20880;-63
2022/12/05 05:58:38;;;;;;;39.50;15.60;;;5.30;98.80;;;;;;4960135;28;20126;-63
2022/12/05 06:01:07;;;;;;;37.95;16.23;;;5.20;99.00;;;;;;4929578;28;20027;-63
2022/12/05 06:03:33;;;;;;;37.00;16.23;;;5.30;99.10;;;;;;4963623;28;20037;-63
2022/12/05 06:06:02;;;;;;;36.08;16.08;;;5.30;99.10;;;;;;4960651;28;20134;-63
2022/12/05 06:08:36;;;;;;;32.35;14.13;;;5.40;98.90;;;;;;4959760;28;20034;-63
2022/12/05 06:11:10;;;;;;;38.83;15.10;;;5.40;98.80;;;;;;4970290;28;20038;-63
2022/12/05 06:13:36;;;;;;;33.72;15.52;;;5.40;98.90;;;;;;4959978;28;20490;-63
2022/12/05 06:16:08;;;;;;;34.42;14.88;;;5.30;98.70;;;;;;4943046;28;20031;-63
2022/12/05 06:18:34;;;;;;;35.55;14.95;;;5.30;99.00;;;;;;4963372;28;20066;-63
2022/12/05 06:21:00;;;;;;;35.88;15.13;;;5.20;99.00;;;;;;4963393;28;20069;-63
2022/12/05 06:23:26;;;;;;;33.65;14.10;;;5.20;99.10;;;;;;4960170;28;20109;-62
2022/12/05 06:25:54;;;;;;;32.65;15.80;;;5.10;99.40;;;;;;4958153;28;20443;-62
2022/12/05 06:28:22;;;;;;;30.35;14.15;;;5.10;99.40;;;;;;4958096;28;20053;-62
2022/12/05 06:30:48;;;;;;;33.53;14.70;;;5.20;99.50;;;;;;4960476;28;20022;-63
2022/12/05 06:33:14;;;;;;;32.40;14.13;;;5.10;99.40;;;;;;4959617;28;20855;-63
2022/12/05 06:35:40;;;;;;;30.30;14.20;;;5.20;99.50;;;;;;4962714;28;20113;-63
2022/12/05 06:38:06;;;;;;;32.45;14.60;;;5.20;99.40;;;;;;4959929;28;20462;-63
2022/12/05 06:40:32;;;;;;;32.13;14.20;;;5.10;99.40;;;;;;4965456;28;20388;-63
2022/12/05 06:42:58;;;;;;;33.03;14.10;;;5.10;99.70;;;;;;4961153;28;20272;-63
2022/12/05 06:45:24;;;;;;;31.83;14.60;;;5.20;99.50;;;;;;4963401;28;20559;-63
2022/12/05 06:47:51;;;;;;;30.05;13.88;;;5.10;99.50;;;;;;4959885;28;20925;-63
2022/12/05 06:50:18;;;;;;;31.00;13.45;;;5.20;99.30;;;;;;4961850;28;20034;-62
2022/12/05 06:52:44;;;;;;;29.20;13.68;;;5.10;99.30;;;;;;4959550;28;20038;-63
2022/12/05 06:55:10;;;;;;;28.48;13.40;;;5.10;99.50;;;;;;4958699;28;20061;-63
2022/12/05 06:57:36;;;;;;;28.10;13.75;;;5.10;99.60;;;;;;4963151;28;20045;-63
2022/12/05 07:02:50;;;;;;;28.13;13.20;;;5.20;99.60;;;;;;4957162;28;20090;-63
2022/12/05 07:05:16;;;;;;;31.83;13.82;;;5.30;99.40;;;;;;4960479;28;20066;-63
2022/12/05 07:07:42;;;;;;;26.85;13.07;;;5.30;99.30;;;;;;4960155;28;20118;-63
2022/12/05 07:10:08;;;;;;;27.00;12.82;;;5.30;99.20;;;;;;4956549;28;20112;-63
2022/12/05 07:12:33;;;;;;;26.58;12.70;;;5.30;99.30;;;;;;4958589;28;20030;-67
2022/12/05 07:15:00;;;;;;;29.23;13.20;;;5.30;99.40;;;;;;4961625;28;20034;-67
2022/12/05 07:17:26;;;;;;;27.88;12.73;;;5.40;99.20;;;;;;4958871;28;20073;-68
2022/12/05 07:19:52;;;;;;;26.55;13.05;;;5.40;99.10;;;;;;4964513;28;20022;-67
2022/12/05 07:22:21;;;;;;;28.13;12.18;;;5.50;98.90;;;;;;4960208;28;20042;-67
2022/12/05 07:24:47;;;;;;;25.77;12.05;;;5.50;98.90;;;;;;4961563;28;20105;-67
2022/12/05 07:27:14;;;;;;;27.27;13.07;;;5.50;98.90;;;;;;4962274;28;20031;-68
2022/12/05 07:29:40;;;;;;;25.80;12.90;;;5.50;98.70;;;;;;4957190;28;20030;-67
2022/12/05 07:32:06;;;;;;;24.10;12.18;;;5.60;98.70;;;;;;4963266;28;20082;-67
2022/12/05 07:34:32;;;;;;;28.38;12.23;;;5.60;98.80;;;;;;4959710;28;20035;-67
2022/12/05 07:36:58;;;;;;;22.75;10.90;;;5.60;98.60;;;;;;4960659;28;20089;-66
2022/12/05 07:39:24;;;;;;;23.20;11.30;;;5.60;98.60;;;;;;4944274;28;20161;-67
2022/12/05 07:41:50;;;;;;;25.67;11.73;;;5.70;98.50;;;;;;4964856;28;20829;-67
2022/12/05 07:44:16;;;;;;;26.25;11.93;;;5.70;98.40;;;;;;4965299;28;20030;-66
2022/12/05 07:46:42;;;;;;;21.15;11.52;;;5.70;98.50;;;;;;4941281;28;20031;-69
2022/12/05 07:49:08;;;;;;;22.35;11.55;;;5.70;98.20;;;;;;4961694;28;20039;-66
2022/12/05 07:51:34;;;;;;;24.80;10.48;;;5.70;98.30;;;;;;4961516;28;20034;-68
2022/12/05 07:54:01;;;;;;;24.23;11.15;;;5.70;98.30;;;;;;4961390;28;20049;-66
2022/12/05 07:56:27;;;;;;;22.08;11.15;;;5.70;98.30;;;;;;4948867;28;20058;-68
2022/12/05 07:58:53;;;;;;;23.08;11.25;;;5.70;98.20;;;;;;4959828;28;20042;-67
2022/12/05 08:01:22;;;;;;;22.63;11.60;;;5.60;98.00;;;;;;4962715;28;20474;-66
2022/12/05 08:03:48;;;;;;;22.33;10.65;;;5.60;98.40;;;;;;4963825;28;20360;-66
2022/12/05 08:06:17;;;;;;;22.65;11.25;;;5.60;98.50;;;;;;4960060;28;20066;-62
2022/12/05 08:08:44;;;;;;;21.30;10.95;;;5.60;98.40;;;;;;4974145;28;20030;-67
2022/12/05 08:11:13;;;;;;;21.73;10.13;;;5.70;98.40;;;;;;4962583;28;20042;-66
2022/12/05 08:13:39;;;;;;;17.77;9.18;;;5.60;98.30;;;;;;4964953;28;20065;-66
2022/12/05 08:16:09;;;;;;;22.52;10.98;;;5.50;98.50;;;;;;4966771;28;20054;-66
2022/12/05 08:18:35;;;;;;;16.42;9.27;;;5.50;98.40;;;;;;4966714;28;20484;-66
2022/12/05 08:21:03;;;;;;;20.63;9.77;;;5.40;98.50;;;;;;4965344;28;20034;-66
2022/12/05 08:23:30;;;;;;;19.67;10.25;;;5.50;98.70;;;;;;4959821;28;20022;-67
2022/12/05 08:25:59;;;;;;;20.08;9.52;;;5.50;98.80;;;;;;4968271;28;20042;-68
2022/12/05 08:28:25;;;;;;;17.80;9.65;;;5.60;98.80;;;;;;4963839;28;20027;-68
2022/12/05 08:30:51;;;;;;;18.92;9.65;;;5.60;98.60;;;;;;4963189;28;20402;-72
2022/12/05 08:33:17;;;;;;;18.38;9.48;;;5.70;98.30;;;;;;4966116;28;20907;-67
2022/12/05 08:35:43;;;;;;;18.63;10.00;;;5.60;98.20;;;;;;4964589;28;20027;-67
2022/12/05 08:38:09;;;;;;;15.88;8.52;;;5.60;98.50;;;;;;4963181;28;20019;-67
2022/12/05 08:40:34;;;;;;;20.95;9.60;;;5.60;98.50;;;;;;4966943;28;20072;-67
2022/12/05 08:43:00;;;;;;;16.33;8.65;;;5.70;98.40;;;;;;4966952;28;20458;-68
2022/12/05 08:45:26;;;;;;;19.15;10.02;;;5.80;98.30;;;;;;4966381;28;20105;-67
2022/12/05 08:47:52;;;;;;;18.35;9.35;;;5.80;98.30;;;;;;4964081;28;20046;-67
2022/12/05 08:50:17;;;;;;;19.25;9.25;;;5.80;98.20;;;;;;4961408;28;20041;-68
2022/12/05 08:52:43;;;;;;;19.17;10.30;;;5.80;98.20;;;;;;4965692;28;20034;-68
2022/12/05 08:55:09;;;;;;;18.90;8.90;;;5.80;98.10;;;;;;4963015;28;20101;-67
2022/12/05 08:57:35;;;;;;;20.80;10.73;;;5.70;98.00;;;;;;4935923;28;20026;-67
2022/12/05 09:00:01;;;;;;;18.52;9.70;;;5.70;98.30;;;;;;4963628;28;20045;-67
2022/12/05 09:02:27;;;;;;;19.17;9.35;;;5.70;98.50;;;;;;4971314;28;20031;-66
2022/12/05 09:04:53;;;;;;;20.35;9.90;;;5.70;98.50;;;;;;4973391;28;20153;-67
2022/12/05 09:07:19;;;;;;;18.80;10.00;;;5.70;98.50;;;;;;4963663;28;20843;-67
2022/12/05 09:09:44;;;;;;;22.02;10.95;;;5.70;98.50;;;;;;4965112;28;20185;-66
2022/12/05 09:12:10;;;;;;;20.95;9.63;;;5.70;98.50;;;;;;4965013;28;20069;-66
2022/12/05 09:14:36;;;;;;;21.38;10.85;;;5.80;98.30;;;;;;4961535;28;20118;-66
2022/12/05 09:17:03;;;;;;;20.33;10.65;;;5.90;98.10;;;;;;4964486;28;20505;-66
2022/12/05 09:19:29;;;;;;;18.33;9.55;;;6.00;98.00;;;;;;4965516;28;20038;-69
2022/12/05 09:21:55;;;;;;;21.45;9.68;;;6.00;97.90;;;;;;4962671;28;20034;-66
2022/12/05 09:24:21;;;;;;;23.52;10.77;;;6.00;97.90;;;;;;4962288;28;20031;-66
2022/12/05 09:26:47;;;;;;;20.75;10.35;;;6.00;97.90;;;;;;4948431;28;20030;-66
2022/12/05 09:29:13;;;;;;;22.58;10.27;;;5.90;97.80;;;;;;4963410;28;20069;-66
2022/12/05 09:31:41;;;;;;;21.05;11.15;;;5.90;98.00;;;;;;4965535;28;20030;-66
2022/12/05 09:34:08;;;;;;;19.10;10.40;;;5.90;97.90;;;;;;4965840;28;20034;-66
2022/12/05 09:36:34;;;;;;;19.83;10.32;;;5.90;98.10;;;;;;4948373;28;20030;-67
2022/12/05 09:39:04;;;;;;;21.27;11.10;;;5.80;98.00;;;;;;4967424;28;20038;-67
2022/12/05 09:42:11;;;;;;;23.02;10.90;;;5.80;98.00;;;;;;4964900;28;20035;-68
2022/12/05 09:45:04;;;;;;;23.52;12.05;;;5.60;98.20;;;;;;4959435;28;20042;-67
2022/12/05 09:47:55;;;;;;;24.35;11.23;;;5.50;98.90;;;;;;4965021;28;20109;-67
2022/12/05 09:50:24;;;;;;;23.13;11.40;;;5.60;98.70;;;;;;4962616;28;20035;-71
2022/12/05 09:53:08;;;;;;;24.98;11.93;;;5.70;98.70;;;;;;4965603;28;20732;-65
2022/12/05 09:55:45;;;;;;;22.55;11.43;;;5.60;98.40;;;;;;4963927;28;20493;-69
2022/12/05 09:58:26;;;;;;;25.85;12.43;;;5.60;98.70;;;;;;4962427;28;20042;-69
2022/12/05 10:01:01;;;;;;;22.30;10.70;;;5.60;98.80;;;;;;4958108;28;20503;-68
2022/12/05 10:03:41;;;;;;;22.45;11.60;;;5.70;98.60;;;;;;4960767;28;20038;-68
2022/12/05 10:06:20;;;;;;;25.23;11.65;;;5.80;98.60;;;;;;4960296;28;20023;-68
2022/12/05 10:08:53;;;;;;;26.23;11.75;;;5.90;98.40;;;;;;4963214;28;20137;-64
2022/12/05 10:11:34;;;;;;;28.83;13.27;;;5.90;98.30;;;;;;4959845;28;20039;-65
2022/12/05 10:14:36;;;;;;;23.90;12.25;;;6.00;98.20;;;;;;4960182;28;20825;-65
2022/12/05 10:17:20;;;;;;;26.15;11.93;;;5.90;98.00;;;;;;4959471;28;20032;-65
2022/12/05 10:19:48;;;;;;;27.27;11.98;;;6.00;98.10;;;;;;4956601;28;20039;-64
2022/12/05 10:22:21;;;;;;;26.00;11.93;;;6.00;98.10;;;;;;4962000;28;20026;-65
2022/12/05 10:25:03;;;;;;;27.23;11.95;;;6.00;97.80;;;;;;4956905;28;20034;-65
2022/12/05 10:27:39;;;;;;;27.02;11.93;;;5.90;98.00;;;;;;4959784;28;20034;-65
2022/12/05 10:30:06;;;;;;;25.23;11.35;;;5.90;98.10;;;;;;4962875;28;20486;-68
2022/12/05 10:32:36;;;;;;;24.55;12.45;;;5.90;98.10;;;;;;4965773;28;20043;-68
2022/12/05 10:35:18;;;;;;;24.13;11.25;;;5.90;98.20;;;;;;4962145;28;20041;-68
2022/12/05 10:37:57;;;;;;;27.63;12.23;;;5.90;98.30;;;;;;4956001;28;20121;-70
2022/12/05 10:40:34;;;;;;;22.23;11.82;;;6.00;98.20;;;;;;4965266;28;20085;-70
2022/12/05 10:43:00;;;;;;;27.77;12.25;;;6.10;98.10;;;;;;4965126;28;20034;-67
2022/12/05 10:45:26;;;;;;;23.50;11.77;;;6.10;97.80;;;;;;4963186;28;20925;-65
2022/12/05 10:47:57;;;;;;;26.95;11.80;;;6.10;97.80;;;;;;4963403;28;20110;-66
2022/12/05 10:50:32;;;;;;;21.13;11.15;;;6.10;97.70;;;;;;4961251;28;20042;-66
2022/12/05 10:53:00;;;;;;;21.85;11.00;;;6.00;97.80;;;;;;4962629;28;20041;-66
2022/12/05 10:55:40;;;;;;;27.17;13.32;;;6.00;97.90;;;;;;4963999;28;20053;-66
2022/12/05 10:58:10;;;;;;;34.85;17.35;;;6.00;98.00;;;;;;4963757;28;20030;-66
2022/12/05 11:00:42;;;;;;;27.27;12.45;;;6.10;97.90;;;;;;4938896;28;20070;-67
2022/12/05 11:03:22;;;;;;;20.00;10.93;;;6.10;97.80;;;;;;4966109;28;20034;-67
2022/12/05 11:05:49;;;;;;;22.90;11.02;;;6.20;97.80;;;;;;4964966;28;20513;-66
2022/12/05 11:08:31;;;;;;;20.10;11.13;;;6.30;97.70;;;;;;4964189;28;20033;-66
2022/12/05 11:11:32;;;;;;;25.00;11.00;;;6.30;97.60;;;;;;4963583;28;20031;-66
2022/12/05 11:14:23;;;;;;;20.95;10.75;;;6.30;97.50;;;;;;4955700;28;20368;-66
2022/12/05 11:16:55;;;;;;;23.27;11.50;;;6.40;97.60;;;;;;4963191;28;20038;-66
2022/12/05 11:19:20;;;;;;;20.02;9.93;;;6.40;97.50;;;;;;4962463;28;20736;-66
2022/12/05 11:21:47;;;;;;;23.20;10.95;;;6.40;97.50;;;;;;4959123;28;20031;-66
2022/12/05 11:24:27;;;;;;;18.67;10.48;;;6.40;97.50;;;;;;4961967;28;20050;-66
2022/12/05 11:26:54;;;;;;;18.08;9.75;;;6.40;97.50;;;;;;4961834;28;20037;-66
2022/12/05 11:29:35;;;;;;;19.33;10.30;;;6.40;97.60;;;;;;4962614;28;20047;-67
2022/12/05 11:32:04;;;;;;;22.73;10.80;;;6.40;97.60;;;;;;4958516;28;20035;-66
2022/12/05 11:34:40;;;;;;;20.80;10.30;;;6.50;97.60;;;;;;4958370;28;20125;-66
2022/12/05 11:37:19;;;;;;;21.40;10.88;;;6.60;97.50;;;;;;4965038;28;20060;-66
2022/12/05 11:39:45;;;;;;;19.98;10.35;;;6.60;97.20;;;;;;4956755;28;20038;-66
2022/12/05 11:42:48;;;;;;;19.23;9.45;;;6.50;97.30;;;;;;4961246;28;20038;-66
2022/12/05 11:45:29;;;;;;;16.42;9.48;;;6.50;97.60;;;;;;4957965;28;20031;-66
2022/12/05 11:48:02;;;;;;;21.73;10.32;;;6.50;97.50;;;;;;4957545;28;20109;-66
2022/12/05 11:50:44;;;;;;;19.08;10.23;;;6.60;97.40;;;;;;4963787;28;20061;-65
2022/12/05 11:53:26;;;;;;;19.05;10.23;;;6.60;97.10;;;;;;4961922;28;20023;-67
2022/12/05 11:56:19;;;;;;;16.65;9.95;;;6.60;97.10;;;;;;4957901;28;20026;-66
2022/12/05 11:59:12;;;;;;;20.25;10.15;;;6.60;97.20;;;;;;4961653;28;20111;-67
2022/12/05 12:01:53;;;;;;;19.08;10.40;;;6.60;97.30;;;;;;4958417;28;20462;-67
2022/12/05 12:04:37;;;;;;;22.83;10.70;;;6.60;97.10;;;;;;4959112;28;20035;-67
2022/12/05 12:07:23;;;;;;;26.13;11.85;;;6.70;97.10;;;;;;4942982;28;20059;-68
2022/12/05 12:09:58;;;;;;;24.10;11.30;;;6.60;97.00;;;;;;4963781;28;20046;-69
2022/12/05 12:12:59;;;;;;;25.02;11.38;;;6.60;97.10;;;;;;4959047;28;20294;-68
2022/12/05 12:15:37;;;;;;;23.30;10.68;;;6.60;96.90;;;;;;4961237;28;20043;-68
2022/12/05 12:18:20;;;;;;;24.02;9.32;;;6.50;97.20;;;;;;4968873;28;20062;-68
2022/12/05 12:20:57;;;;;;;22.35;11.43;;;6.40;97.30;;;;;;4964209;28;20172;-68
2022/12/05 12:23:41;;;;;;;21.13;10.68;;;6.40;97.30;;;;;;4959883;28;20583;-69
2022/12/05 12:26:29;;;;;;;24.92;11.38;;;6.40;97.40;;;;;;4966443;28;20030;-68
2022/12/05 12:29:16;;;;;;;26.05;10.05;;;6.40;97.40;;;;;;4962518;28;20466;-67
2022/12/05 12:31:44;;;;;;;21.58;10.80;;;6.50;97.30;;;;;;4969296;28;20133;-68
2022/12/05 12:34:37;;;;;;;19.38;10.80;;;6.50;97.30;;;;;;4961086;28;20050;-68
2022/12/05 12:37:31;;;;;;;20.98;11.52;;;6.50;97.30;;;;;;4962501;28;20114;-68
2022/12/05 12:40:05;;;;;;;23.45;11.05;;;6.50;97.30;;;;;;4964755;28;20039;-68
2022/12/05 12:43:04;;;;;;;20.83;10.77;;;6.50;97.20;;;;;;4970001;28;20039;-70
2022/12/05 12:45:37;;;;;;;22.35;10.77;;;6.50;97.40;;;;;;4949826;28;20061;-62
2022/12/05 12:48:08;;;;;;;24.25;11.65;;;6.50;97.30;;;;;;4965937;28;20030;-73
2022/12/05 12:50:38;;;;;;;21.83;10.20;;;6.50;97.30;;;;;;4945501;28;20034;-67
2022/12/05 12:53:13;;;;;;;22.77;11.05;;;6.50;97.30;;;;;;4966622;28;20033;-67
2022/12/05 12:56:04;;;;;;;24.95;12.32;;;6.60;97.20;;;;;;4961978;28;20043;-67
2022/12/05 12:58:46;;;;;;;27.95;11.68;;;6.50;97.20;;;;;;4962253;28;20136;-66
2022/12/05 13:01:36;;;;;;;21.67;11.20;;;6.60;97.20;;;;;;4969258;28;20159;-68
2022/12/05 13:04:11;;;;;;;26.45;12.15;;;6.60;97.60;;;;;;4965840;28;20069;-70
2022/12/05 13:06:44;;;;;;;25.02;11.32;;;6.70;97.20;;;;;;4960705;28;20461;-73
2022/12/05 13:09:32;;;;;;;27.20;11.98;;;6.70;97.00;;;;;;4966282;28;20074;-66